sensor_id;sensor_type;location;lat;lon;timestamp;P1;durP1;ratioP1;P2;durP2;ratioP2
79066;SDS011;68470;50.224;14.348;2023-06-10T00:01:58;15.85;;;8.70;;
79066;SDS011;68470;50.224;14.348;2023-06-10T00:04:28;18.88;;;9.57;;
79066;SDS011;68470;50.224;14.348;2023-06-10T00:06:54;20.92;;;10.35;;
79066;SDS011;68470;50.224;14.348;2023-06-10T00:09:20;20.70;;;9.60;;
79066;SDS011;68470;50.224;14.348;2023-06-10T00:11:46;19.30;;;10.02;;
79066;SDS011;68470;50.224;14.348;2023-06-10T00:14:13;19.15;;;9.38;;
79066;SDS011;68470;50.224;14.348;2023-06-10T00:16:39;16.13;;;8.68;;
79066;SDS011;68470;50.224;14.348;2023-06-10T00:19:05;18.88;;;9.45;;
79066;SDS011;68470;50.224;14.348;2023-06-10T00:21:32;16.67;;;9.20;;
79066;SDS011;68470;50.224;14.348;2023-06-10T00:24:10;19.92;;;9.80;;
79066;SDS011;68470;50.224;14.348;2023-06-10T00:26:39;18.00;;;8.52;;
79066;SDS011;68470;50.224;14.348;2023-06-10T00:29:06;19.02;;;9.13;;
79066;SDS011;68470;50.224;14.348;2023-06-10T00:31:33;21.05;;;9.13;;
79066;SDS011;68470;50.224;14.348;2023-06-10T00:34:00;17.98;;;9.00;;
79066;SDS011;68470;50.224;14.348;2023-06-10T00:36:26;20.63;;;10.00;;
79066;SDS011;68470;50.224;14.348;2023-06-10T00:38:52;24.08;;;10.07;;
79066;SDS011;68470;50.224;14.348;2023-06-10T00:41:18;20.10;;;10.48;;
79066;SDS011;68470;50.224;14.348;2023-06-10T00:43:44;18.27;;;10.00;;
79066;SDS011;68470;50.224;14.348;2023-06-10T00:46:13;23.75;;;11.35;;
79066;SDS011;68470;50.224;14.348;2023-06-10T00:48:40;21.92;;;10.82;;
79066;SDS011;68470;50.224;14.348;2023-06-10T00:51:08;15.88;;;9.20;;
79066;SDS011;68470;50.224;14.348;2023-06-10T00:53:35;22.67;;;10.38;;
79066;SDS011;68470;50.224;14.348;2023-06-10T00:56:04;17.52;;;9.73;;
79066;SDS011;68470;50.224;14.348;2023-06-10T00:58:30;29.08;;;12.32;;
79066;SDS011;68470;50.224;14.348;2023-06-10T01:00:57;25.48;;;10.48;;
79066;SDS011;68470;50.224;14.348;2023-06-10T01:03:23;57.63;;;13.50;;
79066;SDS011;68470;50.224;14.348;2023-06-10T01:05:53;26.98;;;10.70;;
79066;SDS011;68470;50.224;14.348;2023-06-10T01:11:36;19.60;;;9.50;;
79066;SDS011;68470;50.224;14.348;2023-06-10T01:14:09;23.77;;;10.73;;
79066;SDS011;68470;50.224;14.348;2023-06-10T01:16:35;18.25;;;9.13;;
79066;SDS011;68470;50.224;14.348;2023-06-10T01:19:02;18.27;;;8.55;;
79066;SDS011;68470;50.224;14.348;2023-06-10T01:21:29;21.05;;;9.50;;
79066;SDS011;68470;50.224;14.348;2023-06-10T01:23:56;26.02;;;10.10;;
79066;SDS011;68470;50.224;14.348;2023-06-10T01:26:25;18.33;;;9.50;;
79066;SDS011;68470;50.224;14.348;2023-06-10T01:28:59;21.27;;;10.70;;
79066;SDS011;68470;50.224;14.348;2023-06-10T01:31:46;17.98;;;9.20;;
79066;SDS011;68470;50.224;14.348;2023-06-10T01:34:17;25.00;;;9.55;;
79066;SDS011;68470;50.224;14.348;2023-06-10T01:36:44;21.25;;;9.85;;
79066;SDS011;68470;50.224;14.348;2023-06-10T01:39:13;18.15;;;9.02;;
79066;SDS011;68470;50.224;14.348;2023-06-10T01:41:42;18.15;;;8.93;;
79066;SDS011;68470;50.224;14.348;2023-06-10T01:44:08;22.40;;;10.38;;
79066;SDS011;68470;50.224;14.348;2023-06-10T01:46:35;20.40;;;9.52;;
79066;SDS011;68470;50.224;14.348;2023-06-10T01:49:00;17.70;;;8.82;;
79066;SDS011;68470;50.224;14.348;2023-06-10T01:51:27;19.23;;;9.38;;
79066;SDS011;68470;50.224;14.348;2023-06-10T01:53:53;21.30;;;9.02;;
79066;SDS011;68470;50.224;14.348;2023-06-10T01:56:18;19.75;;;9.40;;
79066;SDS011;68470;50.224;14.348;2023-06-10T01:58:45;20.40;;;9.82;;
79066;SDS011;68470;50.224;14.348;2023-06-10T02:01:11;20.73;;;9.05;;
79066;SDS011;68470;50.224;14.348;2023-06-10T02:03:37;16.60;;;8.32;;
79066;SDS011;68470;50.224;14.348;2023-06-10T02:06:04;23.80;;;9.98;;
79066;SDS011;68470;50.224;14.348;2023-06-10T02:08:29;40.90;;;10.23;;
79066;SDS011;68470;50.224;14.348;2023-06-10T02:10:55;34.22;;;10.75;;
79066;SDS011;68470;50.224;14.348;2023-06-10T02:13:21;54.72;;;11.02;;
79066;SDS011;68470;50.224;14.348;2023-06-10T02:15:47;60.67;;;11.82;;
79066;SDS011;68470;50.224;14.348;2023-06-10T02:18:13;60.42;;;11.45;;
79066;SDS011;68470;50.224;14.348;2023-06-10T02:20:39;74.05;;;11.57;;
79066;SDS011;68470;50.224;14.348;2023-06-10T02:23:05;74.63;;;13.27;;
79066;SDS011;68470;50.224;14.348;2023-06-10T02:25:31;178.50;;;15.85;;
79066;SDS011;68470;50.224;14.348;2023-06-10T02:27:57;70.22;;;13.55;;
79066;SDS011;68470;50.224;14.348;2023-06-10T02:30:23;50.70;;;10.30;;
79066;SDS011;68470;50.224;14.348;2023-06-10T02:32:49;58.80;;;11.93;;
79066;SDS011;68470;50.224;14.348;2023-06-10T02:35:16;53.47;;;12.65;;
79066;SDS011;68470;50.224;14.348;2023-06-10T02:37:42;46.58;;;10.95;;
79066;SDS011;68470;50.224;14.348;2023-06-10T02:40:09;141.02;;;15.48;;
79066;SDS011;68470;50.224;14.348;2023-06-10T02:42:35;40.85;;;10.75;;
79066;SDS011;68470;50.224;14.348;2023-06-10T02:45:02;73.40;;;11.07;;
79066;SDS011;68470;50.224;14.348;2023-06-10T02:47:28;65.03;;;13.85;;
79066;SDS011;68470;50.224;14.348;2023-06-10T02:49:55;101.15;;;17.20;;
79066;SDS011;68470;50.224;14.348;2023-06-10T02:52:21;155.80;;;14.63;;
79066;SDS011;68470;50.224;14.348;2023-06-10T02:54:48;89.18;;;14.02;;
79066;SDS011;68470;50.224;14.348;2023-06-10T02:57:14;83.82;;;13.95;;
79066;SDS011;68470;50.224;14.348;2023-06-10T02:59:40;89.28;;;13.82;;
79066;SDS011;68470;50.224;14.348;2023-06-10T03:02:06;103.22;;;13.43;;
79066;SDS011;68470;50.224;14.348;2023-06-10T03:04:32;77.20;;;14.50;;
79066;SDS011;68470;50.224;14.348;2023-06-10T03:06:58;96.35;;;12.60;;
79066;SDS011;68470;50.224;14.348;2023-06-10T03:09:29;114.30;;;12.48;;
79066;SDS011;68470;50.224;14.348;2023-06-10T03:11:54;70.32;;;9.77;;
79066;SDS011;68470;50.224;14.348;2023-06-10T03:14:21;108.68;;;13.98;;
79066;SDS011;68470;50.224;14.348;2023-06-10T03:16:46;96.63;;;14.10;;
79066;SDS011;68470;50.224;14.348;2023-06-10T03:19:12;113.60;;;11.73;;
79066;SDS011;68470;50.224;14.348;2023-06-10T03:21:38;77.60;;;13.18;;
79066;SDS011;68470;50.224;14.348;2023-06-10T03:24:03;65.78;;;10.77;;
79066;SDS011;68470;50.224;14.348;2023-06-10T03:26:30;82.95;;;14.38;;
79066;SDS011;68470;50.224;14.348;2023-06-10T03:28:56;114.05;;;13.80;;
79066;SDS011;68470;50.224;14.348;2023-06-10T03:31:22;57.25;;;10.73;;
79066;SDS011;68470;50.224;14.348;2023-06-10T03:33:50;64.88;;;9.52;;
79066;SDS011;68470;50.224;14.348;2023-06-10T03:36:16;106.57;;;11.93;;
79066;SDS011;68470;50.224;14.348;2023-06-10T03:38:42;141.75;;;17.27;;
79066;SDS011;68470;50.224;14.348;2023-06-10T03:41:07;83.38;;;15.73;;
79066;SDS011;68470;50.224;14.348;2023-06-10T03:43:33;144.60;;;18.80;;
79066;SDS011;68470;50.224;14.348;2023-06-10T03:45:59;111.68;;;16.13;;
79066;SDS011;68470;50.224;14.348;2023-06-10T03:48:25;260.52;;;25.40;;
79066;SDS011;68470;50.224;14.348;2023-06-10T03:50:50;153.02;;;15.07;;
79066;SDS011;68470;50.224;14.348;2023-06-10T03:53:18;242.77;;;25.17;;
79066;SDS011;68470;50.224;14.348;2023-06-10T03:55:43;100.03;;;11.38;;
79066;SDS011;68470;50.224;14.348;2023-06-10T03:58:11;46.20;;;10.88;;
79066;SDS011;68470;50.224;14.348;2023-06-10T04:00:39;80.20;;;11.70;;
79066;SDS011;68470;50.224;14.348;2023-06-10T04:03:08;163.52;;;16.15;;
79066;SDS011;68470;50.224;14.348;2023-06-10T04:05:40;63.15;;;11.55;;
79066;SDS011;68470;50.224;14.348;2023-06-10T04:08:08;63.97;;;11.93;;
79066;SDS011;68470;50.224;14.348;2023-06-10T04:10:33;159.30;;;14.90;;
79066;SDS011;68470;50.224;14.348;2023-06-10T04:13:00;60.13;;;10.48;;
79066;SDS011;68470;50.224;14.348;2023-06-10T04:15:26;35.25;;;10.65;;
79066;SDS011;68470;50.224;14.348;2023-06-10T04:17:52;29.08;;;7.72;;
79066;SDS011;68470;50.224;14.348;2023-06-10T04:20:18;49.08;;;8.55;;
79066;SDS011;68470;50.224;14.348;2023-06-10T04:22:44;29.45;;;7.82;;
79066;SDS011;68470;50.224;14.348;2023-06-10T04:25:09;45.42;;;8.05;;
79066;SDS011;68470;50.224;14.348;2023-06-10T04:27:35;16.52;;;7.18;;
79066;SDS011;68470;50.224;14.348;2023-06-10T04:30:02;14.27;;;6.95;;
79066;SDS011;68470;50.224;14.348;2023-06-10T04:32:29;13.50;;;6.47;;
79066;SDS011;68470;50.224;14.348;2023-06-10T04:34:55;9.50;;;5.97;;
79066;SDS011;68470;50.224;14.348;2023-06-10T04:37:21;10.13;;;5.93;;
79066;SDS011;68470;50.224;14.348;2023-06-10T04:39:47;10.70;;;6.82;;
79066;SDS011;68470;50.224;14.348;2023-06-10T04:42:13;10.35;;;6.38;;
79066;SDS011;68470;50.224;14.348;2023-06-10T04:44:39;10.32;;;6.72;;
79066;SDS011;68470;50.224;14.348;2023-06-10T04:47:06;8.45;;;5.72;;
79066;SDS011;68470;50.224;14.348;2023-06-10T04:49:33;8.27;;;5.22;;
79066;SDS011;68470;50.224;14.348;2023-06-10T04:52:02;9.10;;;6.07;;
79066;SDS011;68470;50.224;14.348;2023-06-10T04:54:30;10.38;;;6.00;;
79066;SDS011;68470;50.224;14.348;2023-06-10T04:56:55;9.02;;;6.30;;
79066;SDS011;68470;50.224;14.348;2023-06-10T04:59:21;10.70;;;6.18;;
79066;SDS011;68470;50.224;14.348;2023-06-10T05:01:48;10.07;;;7.00;;
79066;SDS011;68470;50.224;14.348;2023-06-10T05:04:13;8.90;;;6.22;;
79066;SDS011;68470;50.224;14.348;2023-06-10T05:06:40;9.32;;;5.97;;
79066;SDS011;68470;50.224;14.348;2023-06-10T05:09:06;9.45;;;6.88;;
79066;SDS011;68470;50.224;14.348;2023-06-10T05:11:32;11.50;;;7.03;;
79066;SDS011;68470;50.224;14.348;2023-06-10T05:13:57;11.15;;;6.78;;
79066;SDS011;68470;50.224;14.348;2023-06-10T05:16:23;11.32;;;7.68;;
79066;SDS011;68470;50.224;14.348;2023-06-10T05:18:49;12.27;;;7.80;;
79066;SDS011;68470;50.224;14.348;2023-06-10T05:21:16;12.82;;;8.60;;
79066;SDS011;68470;50.224;14.348;2023-06-10T05:23:42;12.85;;;8.20;;
79066;SDS011;68470;50.224;14.348;2023-06-10T05:26:08;13.10;;;8.48;;
79066;SDS011;68470;50.224;14.348;2023-06-10T05:28:33;12.18;;;7.95;;
79066;SDS011;68470;50.224;14.348;2023-06-10T05:30:59;12.82;;;8.50;;
79066;SDS011;68470;50.224;14.348;2023-06-10T05:33:25;12.93;;;8.55;;
79066;SDS011;68470;50.224;14.348;2023-06-10T05:35:51;13.23;;;8.75;;
79066;SDS011;68470;50.224;14.348;2023-06-10T05:38:16;15.32;;;8.80;;
79066;SDS011;68470;50.224;14.348;2023-06-10T05:40:42;11.75;;;7.85;;
79066;SDS011;68470;50.224;14.348;2023-06-10T05:43:08;13.50;;;8.25;;
79066;SDS011;68470;50.224;14.348;2023-06-10T05:45:35;10.00;;;7.30;;
79066;SDS011;68470;50.224;14.348;2023-06-10T05:48:00;13.10;;;8.43;;
79066;SDS011;68470;50.224;14.348;2023-06-10T05:50:26;13.88;;;9.45;;
79066;SDS011;68470;50.224;14.348;2023-06-10T05:52:52;14.57;;;8.70;;
79066;SDS011;68470;50.224;14.348;2023-06-10T05:55:19;13.38;;;9.27;;
79066;SDS011;68470;50.224;14.348;2023-06-10T05:57:45;14.40;;;9.48;;
79066;SDS011;68470;50.224;14.348;2023-06-10T06:00:11;14.18;;;7.90;;
79066;SDS011;68470;50.224;14.348;2023-06-10T06:02:37;11.88;;;8.05;;
79066;SDS011;68470;50.224;14.348;2023-06-10T06:05:03;11.38;;;8.15;;
79066;SDS011;68470;50.224;14.348;2023-06-10T06:07:29;14.25;;;8.15;;
79066;SDS011;68470;50.224;14.348;2023-06-10T06:09:55;13.15;;;8.88;;
79066;SDS011;68470;50.224;14.348;2023-06-10T06:12:21;13.13;;;9.13;;
79066;SDS011;68470;50.224;14.348;2023-06-10T06:14:47;13.02;;;9.10;;
79066;SDS011;68470;50.224;14.348;2023-06-10T06:17:14;15.30;;;10.10;;
79066;SDS011;68470;50.224;14.348;2023-06-10T06:19:40;13.82;;;9.85;;
79066;SDS011;68470;50.224;14.348;2023-06-10T06:22:05;12.77;;;8.90;;
79066;SDS011;68470;50.224;14.348;2023-06-10T06:24:32;14.38;;;8.98;;
79066;SDS011;68470;50.224;14.348;2023-06-10T06:26:58;15.35;;;9.02;;
79066;SDS011;68470;50.224;14.348;2023-06-10T06:29:23;13.73;;;9.68;;
79066;SDS011;68470;50.224;14.348;2023-06-10T06:31:49;11.93;;;8.23;;
79066;SDS011;68470;50.224;14.348;2023-06-10T06:34:15;14.73;;;9.88;;
79066;SDS011;68470;50.224;14.348;2023-06-10T06:36:41;16.38;;;9.88;;
79066;SDS011;68470;50.224;14.348;2023-06-10T06:39:06;15.65;;;10.15;;
79066;SDS011;68470;50.224;14.348;2023-06-10T06:41:32;14.70;;;9.60;;
79066;SDS011;68470;50.224;14.348;2023-06-10T06:43:58;16.23;;;11.77;;
79066;SDS011;68470;50.224;14.348;2023-06-10T06:46:24;13.95;;;9.75;;
79066;SDS011;68470;50.224;14.348;2023-06-10T06:48:50;14.68;;;9.63;;
79066;SDS011;68470;50.224;14.348;2023-06-10T06:51:15;13.65;;;9.98;;
79066;SDS011;68470;50.224;14.348;2023-06-10T06:53:41;14.52;;;10.15;;
79066;SDS011;68470;50.224;14.348;2023-06-10T06:56:11;13.75;;;8.80;;
79066;SDS011;68470;50.224;14.348;2023-06-10T06:58:37;10.02;;;8.35;;
79066;SDS011;68470;50.224;14.348;2023-06-10T07:01:03;13.60;;;8.73;;
79066;SDS011;68470;50.224;14.348;2023-06-10T07:03:29;14.68;;;9.98;;
79066;SDS011;68470;50.224;14.348;2023-06-10T07:05:55;13.82;;;9.10;;
79066;SDS011;68470;50.224;14.348;2023-06-10T07:08:21;14.98;;;8.18;;
79066;SDS011;68470;50.224;14.348;2023-06-10T07:10:46;12.63;;;8.63;;
79066;SDS011;68470;50.224;14.348;2023-06-10T07:13:12;9.80;;;7.43;;
79066;SDS011;68470;50.224;14.348;2023-06-10T07:15:38;10.02;;;7.82;;
79066;SDS011;68470;50.224;14.348;2023-06-10T07:18:04;14.55;;;8.23;;
79066;SDS011;68470;50.224;14.348;2023-06-10T07:20:30;12.20;;;8.57;;
79066;SDS011;68470;50.224;14.348;2023-06-10T07:22:56;11.23;;;7.90;;
79066;SDS011;68470;50.224;14.348;2023-06-10T07:25:21;9.05;;;6.85;;
79066;SDS011;68470;50.224;14.348;2023-06-10T07:27:47;8.35;;;6.90;;
79066;SDS011;68470;50.224;14.348;2023-06-10T07:30:13;10.30;;;7.60;;
79066;SDS011;68470;50.224;14.348;2023-06-10T07:32:39;11.18;;;7.18;;
79066;SDS011;68470;50.224;14.348;2023-06-10T07:35:07;8.18;;;6.45;;
79066;SDS011;68470;50.224;14.348;2023-06-10T07:37:35;8.27;;;6.97;;
79066;SDS011;68470;50.224;14.348;2023-06-10T07:40:00;9.07;;;6.57;;
79066;SDS011;68470;50.224;14.348;2023-06-10T07:42:26;8.55;;;5.90;;
79066;SDS011;68470;50.224;14.348;2023-06-10T07:44:52;10.40;;;7.13;;
79066;SDS011;68470;50.224;14.348;2023-06-10T07:47:18;9.35;;;7.05;;
79066;SDS011;68470;50.224;14.348;2023-06-10T07:49:44;9.43;;;6.85;;
79066;SDS011;68470;50.224;14.348;2023-06-10T07:52:10;11.40;;;6.97;;
79066;SDS011;68470;50.224;14.348;2023-06-10T07:54:35;11.80;;;7.00;;
79066;SDS011;68470;50.224;14.348;2023-06-10T07:57:01;8.68;;;6.20;;
79066;SDS011;68470;50.224;14.348;2023-06-10T07:59:26;9.73;;;7.18;;
79066;SDS011;68470;50.224;14.348;2023-06-10T08:01:53;10.05;;;7.22;;
79066;SDS011;68470;50.224;14.348;2023-06-10T08:04:18;9.90;;;6.55;;
79066;SDS011;68470;50.224;14.348;2023-06-10T08:06:44;9.10;;;6.30;;
79066;SDS011;68470;50.224;14.348;2023-06-10T08:09:10;10.60;;;7.13;;
79066;SDS011;68470;50.224;14.348;2023-06-10T08:11:36;9.02;;;6.53;;
79066;SDS011;68470;50.224;14.348;2023-06-10T08:14:01;8.35;;;6.13;;
79066;SDS011;68470;50.224;14.348;2023-06-10T08:16:27;6.95;;;6.00;;
79066;SDS011;68470;50.224;14.348;2023-06-10T08:18:55;8.82;;;6.05;;
79066;SDS011;68470;50.224;14.348;2023-06-10T08:21:21;8.00;;;6.10;;
79066;SDS011;68470;50.224;14.348;2023-06-10T08:23:47;8.40;;;6.25;;
79066;SDS011;68470;50.224;14.348;2023-06-10T08:26:13;8.15;;;6.53;;
79066;SDS011;68470;50.224;14.348;2023-06-10T08:28:39;7.18;;;5.72;;
79066;SDS011;68470;50.224;14.348;2023-06-10T08:31:05;7.43;;;6.60;;
79066;SDS011;68470;50.224;14.348;2023-06-10T08:33:30;6.53;;;5.40;;
79066;SDS011;68470;50.224;14.348;2023-06-10T08:35:56;9.20;;;5.22;;
79066;SDS011;68470;50.224;14.348;2023-06-10T08:38:22;8.15;;;5.47;;
79066;SDS011;68470;50.224;14.348;2023-06-10T08:40:48;10.35;;;5.30;;
79066;SDS011;68470;50.224;14.348;2023-06-10T08:43:37;7.25;;;5.55;;
79066;SDS011;68470;50.224;14.348;2023-06-10T08:46:10;6.47;;;5.05;;
79066;SDS011;68470;50.224;14.348;2023-06-10T08:48:39;7.63;;;5.30;;
79066;SDS011;68470;50.224;14.348;2023-06-10T08:51:09;7.32;;;5.68;;
79066;SDS011;68470;50.224;14.348;2023-06-10T08:53:37;6.30;;;5.30;;
79066;SDS011;68470;50.224;14.348;2023-06-10T08:56:08;9.18;;;6.05;;
79066;SDS011;68470;50.224;14.348;2023-06-10T08:58:35;6.28;;;5.32;;
79066;SDS011;68470;50.224;14.348;2023-06-10T09:01:10;7.20;;;5.43;;
79066;SDS011;68470;50.224;14.348;2023-06-10T09:03:37;5.72;;;5.03;;
79066;SDS011;68470;50.224;14.348;2023-06-10T09:06:04;6.43;;;4.82;;
79066;SDS011;68470;50.224;14.348;2023-06-10T09:08:30;7.55;;;5.88;;
79066;SDS011;68470;50.224;14.348;2023-06-10T09:10:58;6.25;;;4.93;;
79066;SDS011;68470;50.224;14.348;2023-06-10T09:13:24;7.55;;;5.35;;
79066;SDS011;68470;50.224;14.348;2023-06-10T09:15:50;7.20;;;5.53;;
79066;SDS011;68470;50.224;14.348;2023-06-10T09:18:16;6.63;;;5.32;;
79066;SDS011;68470;50.224;14.348;2023-06-10T09:20:42;7.72;;;5.20;;
79066;SDS011;68470;50.224;14.348;2023-06-10T09:23:08;6.95;;;5.38;;
79066;SDS011;68470;50.224;14.348;2023-06-10T09:25:36;7.47;;;5.72;;
79066;SDS011;68470;50.224;14.348;2023-06-10T09:28:03;7.75;;;6.00;;
79066;SDS011;68470;50.224;14.348;2023-06-10T09:30:30;8.85;;;6.75;;
79066;SDS011;68470;50.224;14.348;2023-06-10T09:32:58;10.27;;;6.57;;
79066;SDS011;68470;50.224;14.348;2023-06-10T09:35:27;7.90;;;5.95;;
79066;SDS011;68470;50.224;14.348;2023-06-10T09:37:55;7.20;;;5.50;;
79066;SDS011;68470;50.224;14.348;2023-06-10T09:40:22;9.95;;;6.95;;
79066;SDS011;68470;50.224;14.348;2023-06-10T09:42:56;8.30;;;6.03;;
79066;SDS011;68470;50.224;14.348;2023-06-10T09:45:28;9.27;;;5.93;;
79066;SDS011;68470;50.224;14.348;2023-06-10T09:47:56;7.68;;;6.10;;
79066;SDS011;68470;50.224;14.348;2023-06-10T09:50:22;9.05;;;6.35;;
79066;SDS011;68470;50.224;14.348;2023-06-10T09:52:49;10.15;;;7.28;;
79066;SDS011;68470;50.224;14.348;2023-06-10T09:55:16;8.60;;;6.80;;
79066;SDS011;68470;50.224;14.348;2023-06-10T09:57:42;9.85;;;6.63;;
79066;SDS011;68470;50.224;14.348;2023-06-10T10:00:13;9.25;;;6.30;;
79066;SDS011;68470;50.224;14.348;2023-06-10T10:02:49;9.35;;;7.03;;
79066;SDS011;68470;50.224;14.348;2023-06-10T10:05:17;9.43;;;6.82;;
79066;SDS011;68470;50.224;14.348;2023-06-10T10:07:44;9.27;;;5.97;;
79066;SDS011;68470;50.224;14.348;2023-06-10T10:10:11;11.02;;;7.68;;
79066;SDS011;68470;50.224;14.348;2023-06-10T10:12:39;9.35;;;6.88;;
79066;SDS011;68470;50.224;14.348;2023-06-10T10:15:09;8.70;;;6.55;;
79066;SDS011;68470;50.224;14.348;2023-06-10T10:18:09;8.63;;;6.95;;
79066;SDS011;68470;50.224;14.348;2023-06-10T10:24:01;9.63;;;6.13;;
79066;SDS011;68470;50.224;14.348;2023-06-10T10:26:28;6.63;;;5.53;;
79066;SDS011;68470;50.224;14.348;2023-06-10T10:29:39;11.20;;;7.32;;
79066;SDS011;68470;50.224;14.348;2023-06-10T10:31:51;10.55;;;6.88;;
79066;SDS011;68470;50.224;14.348;2023-06-10T10:34:30;10.98;;;7.70;;
79066;SDS011;68470;50.224;14.348;2023-06-10T10:37:08;8.65;;;7.18;;
79066;SDS011;68470;50.224;14.348;2023-06-10T10:39:34;8.82;;;6.65;;
79066;SDS011;68470;50.224;14.348;2023-06-10T10:42:02;10.32;;;7.55;;
79066;SDS011;68470;50.224;14.348;2023-06-10T10:44:30;10.45;;;7.82;;
79066;SDS011;68470;50.224;14.348;2023-06-10T10:46:57;8.40;;;7.05;;
79066;SDS011;68470;50.224;14.348;2023-06-10T10:49:30;8.32;;;6.00;;
79066;SDS011;68470;50.224;14.348;2023-06-10T10:51:58;8.55;;;7.38;;
79066;SDS011;68470;50.224;14.348;2023-06-10T10:54:32;10.48;;;7.03;;
79066;SDS011;68470;50.224;14.348;2023-06-10T11:05:05;8.70;;;6.53;;
79066;SDS011;68470;50.224;14.348;2023-06-10T11:07:32;14.13;;;7.05;;
79066;SDS011;68470;50.224;14.348;2023-06-10T11:10:02;8.55;;;6.15;;
79066;SDS011;68470;50.224;14.348;2023-06-10T11:15:10;7.50;;;6.00;;
79066;SDS011;68470;50.224;14.348;2023-06-10T11:17:38;7.90;;;6.07;;
79066;SDS011;68470;50.224;14.348;2023-06-10T11:31:20;7.35;;;5.30;;
79066;SDS011;68470;50.224;14.348;2023-06-10T11:33:47;8.35;;;5.75;;
79066;SDS011;68470;50.224;14.348;2023-06-10T11:36:14;8.68;;;6.07;;
79066;SDS011;68470;50.224;14.348;2023-06-10T11:38:40;5.97;;;4.35;;
79066;SDS011;68470;50.224;14.348;2023-06-10T11:41:08;8.23;;;5.85;;
79066;SDS011;68470;50.224;14.348;2023-06-10T11:43:34;8.60;;;5.90;;
79066;SDS011;68470;50.224;14.348;2023-06-10T11:46:00;7.63;;;6.10;;
79066;SDS011;68470;50.224;14.348;2023-06-10T11:48:27;8.00;;;6.50;;
79066;SDS011;68470;50.224;14.348;2023-06-10T11:50:56;8.82;;;5.95;;
79066;SDS011;68470;50.224;14.348;2023-06-10T11:53:23;9.35;;;5.50;;
79066;SDS011;68470;50.224;14.348;2023-06-10T11:55:50;7.85;;;6.15;;
79066;SDS011;68470;50.224;14.348;2023-06-10T11:58:20;7.22;;;5.65;;
79066;SDS011;68470;50.224;14.348;2023-06-10T12:00:48;9.27;;;6.13;;
79066;SDS011;68470;50.224;14.348;2023-06-10T12:03:15;8.63;;;5.90;;
79066;SDS011;68470;50.224;14.348;2023-06-10T12:08:28;8.63;;;5.75;;
79066;SDS011;68470;50.224;14.348;2023-06-10T12:10:55;9.55;;;6.63;;
79066;SDS011;68470;50.224;14.348;2023-06-10T12:13:22;7.93;;;6.25;;
79066;SDS011;68470;50.224;14.348;2023-06-10T12:15:51;6.80;;;5.65;;
79066;SDS011;68470;50.224;14.348;2023-06-10T12:18:17;8.13;;;6.40;;
79066;SDS011;68470;50.224;14.348;2023-06-10T12:20:50;9.05;;;5.90;;
79066;SDS011;68470;50.224;14.348;2023-06-10T12:23:17;7.78;;;5.40;;
79066;SDS011;68470;50.224;14.348;2023-06-10T12:25:53;8.45;;;5.82;;
79066;SDS011;68470;50.224;14.348;2023-06-10T12:28:20;7.50;;;5.90;;
79066;SDS011;68470;50.224;14.348;2023-06-10T12:30:50;8.00;;;5.95;;
79066;SDS011;68470;50.224;14.348;2023-06-10T12:33:19;7.18;;;5.35;;
79066;SDS011;68470;50.224;14.348;2023-06-10T12:35:49;6.95;;;5.93;;
79066;SDS011;68470;50.224;14.348;2023-06-10T12:38:21;7.45;;;4.97;;
79066;SDS011;68470;50.224;14.348;2023-06-10T12:40:52;7.68;;;6.43;;
79066;SDS011;68470;50.224;14.348;2023-06-10T12:43:27;7.57;;;5.63;;
79066;SDS011;68470;50.224;14.348;2023-06-10T12:45:53;7.38;;;6.35;;
79066;SDS011;68470;50.224;14.348;2023-06-10T12:50:57;8.30;;;5.90;;
79066;SDS011;68470;50.224;14.348;2023-06-10T12:53:24;6.97;;;5.72;;
79066;SDS011;68470;50.224;14.348;2023-06-10T12:55:51;8.90;;;6.53;;
79066;SDS011;68470;50.224;14.348;2023-06-10T12:58:21;8.70;;;6.45;;
79066;SDS011;68470;50.224;14.348;2023-06-10T13:00:47;7.78;;;6.13;;
79066;SDS011;68470;50.224;14.348;2023-06-10T13:03:14;10.13;;;6.50;;
79066;SDS011;68470;50.224;14.348;2023-06-10T13:05:40;9.88;;;6.72;;
79066;SDS011;68470;50.224;14.348;2023-06-10T13:08:07;9.23;;;5.93;;
79066;SDS011;68470;50.224;14.348;2023-06-10T13:10:35;9.43;;;6.13;;
79066;SDS011;68470;50.224;14.348;2023-06-10T13:13:02;7.90;;;6.18;;
79066;SDS011;68470;50.224;14.348;2023-06-10T13:15:31;10.35;;;6.82;;
79066;SDS011;68470;50.224;14.348;2023-06-10T13:18:02;8.93;;;6.47;;
79066;SDS011;68470;50.224;14.348;2023-06-10T13:20:29;7.85;;;6.43;;
79066;SDS011;68470;50.224;14.348;2023-06-10T13:22:55;8.77;;;5.90;;
79066;SDS011;68470;50.224;14.348;2023-06-10T13:25:20;9.40;;;6.05;;
79066;SDS011;68470;50.224;14.348;2023-06-10T13:27:47;9.32;;;6.43;;
79066;SDS011;68470;50.224;14.348;2023-06-10T13:30:12;7.80;;;5.93;;
79066;SDS011;68470;50.224;14.348;2023-06-10T13:32:39;7.88;;;5.45;;
79066;SDS011;68470;50.224;14.348;2023-06-10T13:35:04;8.25;;;6.20;;
79066;SDS011;68470;50.224;14.348;2023-06-10T13:37:31;9.43;;;6.35;;
79066;SDS011;68470;50.224;14.348;2023-06-10T13:39:58;7.13;;;6.40;;
79066;SDS011;68470;50.224;14.348;2023-06-10T13:42:25;8.60;;;5.05;;
79066;SDS011;68470;50.224;14.348;2023-06-10T13:44:54;9.07;;;5.93;;
79066;SDS011;68470;50.224;14.348;2023-06-10T13:47:22;7.22;;;5.07;;
79066;SDS011;68470;50.224;14.348;2023-06-10T13:49:48;6.35;;;5.28;;
79066;SDS011;68470;50.224;14.348;2023-06-10T13:52:14;7.97;;;5.55;;
79066;SDS011;68470;50.224;14.348;2023-06-10T13:54:40;4.75;;;3.90;;
79066;SDS011;68470;50.224;14.348;2023-06-10T13:57:06;7.43;;;5.60;;
79066;SDS011;68470;50.224;14.348;2023-06-10T13:59:35;5.88;;;4.47;;
79066;SDS011;68470;50.224;14.348;2023-06-10T14:02:01;7.53;;;5.47;;
79066;SDS011;68470;50.224;14.348;2023-06-10T14:04:27;5.25;;;4.50;;
79066;SDS011;68470;50.224;14.348;2023-06-10T14:06:53;7.20;;;5.20;;
79066;SDS011;68470;50.224;14.348;2023-06-10T14:09:18;7.65;;;4.95;;
79066;SDS011;68470;50.224;14.348;2023-06-10T14:11:44;6.15;;;5.50;;
79066;SDS011;68470;50.224;14.348;2023-06-10T14:14:10;6.70;;;5.40;;
79066;SDS011;68470;50.224;14.348;2023-06-10T14:16:36;6.20;;;5.60;;
79066;SDS011;68470;50.224;14.348;2023-06-10T14:19:02;8.60;;;6.53;;
79066;SDS011;68470;50.224;14.348;2023-06-10T14:21:30;7.32;;;5.85;;
79066;SDS011;68470;50.224;14.348;2023-06-10T14:23:56;8.32;;;5.13;;
79066;SDS011;68470;50.224;14.348;2023-06-10T14:26:22;5.80;;;5.20;;
79066;SDS011;68470;50.224;14.348;2023-06-10T14:28:48;7.88;;;5.57;;
79066;SDS011;68470;50.224;14.348;2023-06-10T14:31:15;6.25;;;5.35;;
79066;SDS011;68470;50.224;14.348;2023-06-10T14:33:41;6.43;;;5.20;;
79066;SDS011;68470;50.224;14.348;2023-06-10T14:36:09;7.85;;;5.40;;
79066;SDS011;68470;50.224;14.348;2023-06-10T14:38:35;7.38;;;5.68;;
79066;SDS011;68470;50.224;14.348;2023-06-10T14:41:01;6.90;;;5.57;;
79066;SDS011;68470;50.224;14.348;2023-06-10T14:43:28;12.27;;;5.95;;
79066;SDS011;68470;50.224;14.348;2023-06-10T14:45:54;8.20;;;5.43;;
79066;SDS011;68470;50.224;14.348;2023-06-10T14:48:21;6.63;;;5.43;;
79066;SDS011;68470;50.224;14.348;2023-06-10T14:50:47;7.28;;;5.75;;
79066;SDS011;68470;50.224;14.348;2023-06-10T14:55:43;8.02;;;5.13;;
79066;SDS011;68470;50.224;14.348;2023-06-10T14:58:08;6.20;;;5.60;;
79066;SDS011;68470;50.224;14.348;2023-06-10T15:00:34;7.03;;;5.15;;